createdAt,value
2018-06-02T00:00:43.931Z,1014.23
2018-06-02T00:01:40.584Z,1014.27
2018-06-02T00:02:40.420Z,1014.24
2018-06-02T00:03:40.390Z,1014.22
2018-06-02T00:04:40.249Z,1014.23
2018-06-02T00:05:40.226Z,1014.23
2018-06-02T00:06:40.104Z,1014.21
2018-06-02T00:07:40.104Z,1014.20
2018-06-02T00:08:39.937Z,1014.20
2018-06-02T00:11:21.882Z,1014.18
2018-06-02T00:12:21.809Z,1014.20
2018-06-02T00:13:21.651Z,1014.16
2018-06-02T00:14:21.616Z,1014.22
2018-06-02T00:15:21.493Z,1014.21
2018-06-02T00:16:21.568Z,1014.20
2018-06-02T00:17:21.332Z,1014.21
2018-06-02T00:20:03.308Z,1014.22
2018-06-02T00:21:03.366Z,1014.20
2018-06-02T00:22:03.154Z,1014.20
2018-06-02T00:23:03.141Z,1014.22
2018-06-02T00:24:02.984Z,1014.25
2018-06-02T00:25:02.945Z,1014.24
2018-06-02T00:26:02.852Z,1014.24
2018-06-02T00:27:02.868Z,1014.25
2018-06-02T00:28:02.664Z,1014.25
2018-06-02T00:29:02.685Z,1014.20
2018-06-02T00:30:02.518Z,1014.21
2018-06-02T00:31:02.519Z,1014.22
2018-06-02T00:32:02.357Z,1014.22
2018-06-02T00:33:02.392Z,1014.20
2018-06-02T00:34:02.200Z,1014.18
2018-06-02T00:35:02.197Z,1014.19
2018-06-02T00:36:02.073Z,1014.25
2018-06-02T00:37:02.016Z,1014.19
2018-06-02T00:38:01.884Z,1014.21
2018-06-02T00:39:01.916Z,1014.21
2018-06-02T00:40:01.739Z,1014.22
2018-06-02T00:41:01.722Z,1014.21
2018-06-02T00:42:01.587Z,1014.22
2018-06-02T00:44:43.805Z,1014.25
2018-06-02T00:45:43.838Z,1014.26
2018-06-02T00:46:46.945Z,1014.24
2018-06-02T00:47:43.676Z,1014.25
2018-06-02T00:48:43.485Z,1014.26
2018-06-02T00:49:43.466Z,1014.26
2018-06-02T00:50:43.341Z,1014.29
2018-06-02T00:51:47.500Z,1014.28
2018-06-02T00:52:43.180Z,1014.27
2018-06-02T00:55:25.305Z,1014.24
2018-06-02T00:56:25.267Z,1014.28
2018-06-02T00:57:25.161Z,1014.25
2018-06-02T00:58:25.179Z,1014.24
2018-06-02T00:59:24.985Z,1014.24
2018-06-02T01:00:25.010Z,1014.25
2018-06-02T01:01:24.839Z,1014.24
2018-06-02T01:02:24.842Z,1014.24
2018-06-02T01:03:24.681Z,1014.26
2018-06-02T01:04:24.826Z,1014.24
2018-06-02T01:05:24.520Z,1014.24
2018-06-02T01:06:25.040Z,1014.22
2018-06-02T01:07:24.398Z,1014.19
2018-06-02T01:10:06.316Z,1014.20
2018-06-02T01:11:06.326Z,1014.18
2018-06-02T01:12:06.152Z,1014.17
2018-06-02T01:13:06.162Z,1014.15
2018-06-02T01:14:06.006Z,1014.15
2018-06-02T01:15:05.944Z,1014.15
2018-06-02T01:16:05.844Z,1014.18
2018-06-02T01:17:05.851Z,1014.19
2018-06-02T01:18:05.704Z,1014.16
2018-06-02T01:19:05.660Z,1014.16
2018-06-02T01:20:05.527Z,1014.13
2018-06-02T01:21:05.572Z,1014.13
2018-06-02T01:22:05.380Z,1014.12
2018-06-02T01:23:05.430Z,1014.10
2018-06-02T01:24:05.216Z,1014.11
2018-06-02T01:25:05.189Z,1014.06
2018-06-02T01:26:05.060Z,1014.09
2018-06-02T01:28:47.326Z,1014.08
2018-06-02T01:29:47.307Z,1014.07
2018-06-02T01:30:47.155Z,1014.10
2018-06-02T01:31:47.123Z,1014.12
2018-06-02T01:32:47.008Z,1014.11
2018-06-02T01:33:47.971Z,1014.11
2018-06-02T01:34:46.847Z,1014.12
2018-06-02T01:37:28.823Z,1014.08
2018-06-02T01:38:28.860Z,1014.10
2018-06-02T01:39:28.693Z,1014.08
2018-06-02T01:40:28.640Z,1014.07
2018-06-02T01:41:28.495Z,1014.01
2018-06-02T01:42:28.539Z,1014.00
2018-06-02T01:43:28.362Z,1014.02
2018-06-02T01:44:29.316Z,1013.99
2018-06-02T01:45:28.192Z,1013.99
2018-06-02T01:46:28.162Z,1013.99
2018-06-02T01:47:28.048Z,1014.00
2018-06-02T01:48:28.310Z,1013.97
2018-06-02T01:49:27.899Z,1013.96
2018-06-02T01:50:28.393Z,1013.99
2018-06-02T01:51:27.716Z,1013.98
2018-06-02T01:54:12.954Z,1013.97
2018-06-02T01:55:09.791Z,1013.97
2018-06-02T01:56:09.660Z,1013.97
2018-06-02T01:57:09.704Z,1013.97
2018-06-02T01:58:09.501Z,1013.97
2018-06-02T01:59:09.455Z,1014.01
2018-06-02T02:00:09.355Z,1013.99
2018-06-02T02:01:09.323Z,1013.96
2018-06-02T02:02:09.189Z,1014.00
2018-06-02T02:03:09.234Z,1013.98
2018-06-02T02:04:09.058Z,1014.00
2018-06-02T02:05:09.069Z,1014.03
2018-06-02T02:06:08.893Z,1014.00
2018-06-02T02:07:08.857Z,1014.00
2018-06-02T02:08:08.718Z,1013.98
2018-06-02T02:10:50.857Z,1013.96
2018-06-02T02:11:50.870Z,1013.97
2018-06-02T02:12:50.671Z,1013.95
2018-06-02T02:13:50.665Z,1013.96
2018-06-02T02:14:50.550Z,1013.95
2018-06-02T02:17:32.335Z,1013.96
2018-06-02T02:18:32.386Z,1013.93
2018-06-02T02:19:32.167Z,1013.95
2018-06-02T02:20:32.226Z,1013.94
2018-06-02T02:21:32.023Z,1013.92
2018-06-02T02:22:31.994Z,1013.95
2018-06-02T02:23:31.861Z,1013.94
2018-06-02T02:24:31.900Z,1013.93
2018-06-02T02:25:31.699Z,1013.93
2018-06-02T02:26:32.788Z,1013.94
2018-06-02T02:27:31.536Z,1013.93
2018-06-02T02:28:31.520Z,1013.95
2018-06-02T02:29:31.399Z,1013.92
2018-06-02T02:30:31.569Z,1013.94
2018-06-02T02:31:31.239Z,1013.96
2018-06-02T02:32:31.754Z,1013.97
2018-06-02T02:33:31.108Z,1014.00
2018-06-02T02:36:13.347Z,1013.99
2018-06-02T02:37:13.346Z,1014.03
2018-06-02T02:38:13.171Z,1014.02
2018-06-02T02:39:13.161Z,1013.98
2018-06-02T02:40:13.026Z,1014.04
2018-06-02T02:41:12.998Z,1014.01
2018-06-02T02:42:12.875Z,1014.03
2018-06-02T02:43:12.875Z,1013.99
2018-06-02T02:44:12.709Z,1014.03
2018-06-02T02:45:12.708Z,1014.00
2018-06-02T02:46:12.817Z,1014.05
2018-06-02T02:47:12.588Z,1014.03
2018-06-02T02:48:12.392Z,1014.04
2018-06-02T02:50:54.336Z,1014.05
2018-06-02T02:51:57.516Z,1014.10
2018-06-02T02:52:54.189Z,1014.04
2018-06-02T02:53:54.206Z,1014.06
2018-06-02T02:54:54.033Z,1014.06
2018-06-02T02:57:35.867Z,1014.07
2018-06-02T02:58:35.810Z,1014.03
2018-06-02T02:59:35.680Z,1014.04
2018-06-02T03:00:35.720Z,1014.06
2018-06-02T03:01:35.549Z,1014.09
2018-06-02T03:02:35.531Z,1014.10
2018-06-02T03:03:35.368Z,1014.08
2018-06-02T03:06:17.365Z,1014.07
2018-06-02T03:07:17.333Z,1014.09
2018-06-02T03:08:17.179Z,1014.11
2018-06-02T03:09:17.150Z,1014.11
2018-06-02T03:10:17.035Z,1014.12
2018-06-02T03:11:18.110Z,1014.13
2018-06-02T03:12:16.869Z,1014.14
2018-06-02T03:13:16.867Z,1014.11
2018-06-02T03:14:16.712Z,1014.11
2018-06-02T03:15:16.669Z,1014.08
2018-06-02T03:16:16.555Z,1014.11
2018-06-02T03:17:20.096Z,1014.08
2018-06-02T03:18:16.402Z,1014.06
2018-06-02T03:19:16.401Z,1014.04
2018-06-02T03:20:16.243Z,1014.06
2018-06-02T03:22:58.378Z,1014.04
2018-06-02T03:23:58.295Z,1014.07
2018-06-02T03:24:58.188Z,1014.01
2018-06-02T03:27:40.368Z,1014.01
2018-06-02T03:28:40.303Z,1014.04
2018-06-02T03:29:40.187Z,1013.97
2018-06-02T03:30:40.231Z,1014.00
2018-06-02T03:31:40.032Z,1014.00
2018-06-02T03:32:40.056Z,1014.00
2018-06-02T03:33:39.881Z,1014.01
2018-06-02T03:36:21.849Z,1013.96
2018-06-02T03:37:21.973Z,1013.99
2018-06-02T03:38:21.708Z,1014.04
2018-06-02T03:39:21.637Z,1014.01
2018-06-02T03:40:21.560Z,1013.99
2018-06-02T03:41:21.554Z,1014.00
2018-06-02T03:42:21.380Z,1014.02
2018-06-02T03:43:21.390Z,1014.00
2018-06-02T03:44:21.222Z,1014.03
2018-06-02T03:45:21.276Z,1014.04
2018-06-02T03:46:21.068Z,1014.04
2018-06-02T03:47:21.092Z,1014.02
2018-06-02T03:48:20.937Z,1014.05
2018-06-02T03:51:02.865Z,1014.02
2018-06-02T03:52:02.892Z,1014.07
2018-06-02T03:53:04.487Z,1014.06
2018-06-02T03:55:44.879Z,1014.09
2018-06-02T03:56:44.908Z,1014.11
2018-06-02T03:57:44.688Z,1014.07
2018-06-02T03:58:44.739Z,1014.07
2018-06-02T03:59:44.539Z,1014.09
2018-06-02T04:00:44.532Z,1014.07
2018-06-02T04:01:44.396Z,1014.04
2018-06-02T04:02:44.419Z,1014.07
2018-06-02T04:03:44.255Z,1014.10
2018-06-02T04:06:26.355Z,1014.07
2018-06-02T04:07:26.331Z,1014.09
2018-06-02T04:08:26.230Z,1014.07
2018-06-02T04:09:26.243Z,1014.09
2018-06-02T04:10:26.041Z,1014.08
2018-06-02T04:11:26.057Z,1014.14
2018-06-02T04:12:25.893Z,1014.13
2018-06-02T04:13:26.938Z,1014.13
2018-06-02T04:14:25.721Z,1014.15
2018-06-02T04:15:25.774Z,1014.19
2018-06-02T04:16:25.581Z,1014.16
2018-06-02T04:17:25.578Z,1014.19
2018-06-02T04:18:25.422Z,1014.20
2018-06-02T04:19:25.449Z,1014.22
2018-06-02T04:20:25.269Z,1014.21
2018-06-02T04:21:25.295Z,1014.21
2018-06-02T04:22:25.111Z,1014.19
2018-06-02T04:25:07.425Z,1014.22
2018-06-02T04:26:07.417Z,1014.23
2018-06-02T04:27:07.205Z,1014.24
2018-06-02T04:28:07.222Z,1014.24
2018-06-02T04:29:07.057Z,1014.23
2018-06-02T04:30:11.069Z,1014.25
2018-06-02T04:31:06.905Z,1014.30
2018-06-02T04:32:06.941Z,1014.26
2018-06-02T04:33:06.737Z,1014.30
2018-06-02T04:34:06.742Z,1014.28
2018-06-02T04:35:06.602Z,1014.29
2018-06-02T04:36:06.561Z,1014.32
2018-06-02T04:37:06.427Z,1014.26
2018-06-02T04:39:48.383Z,1014.28
2018-06-02T04:40:48.361Z,1014.27
2018-06-02T04:41:48.221Z,1014.26
2018-06-02T04:44:30.405Z,1014.30
2018-06-02T04:47:16.445Z,1014.24
2018-06-02T04:48:16.365Z,1014.27
2018-06-02T04:49:16.218Z,1014.28
2018-06-02T04:50:16.196Z,1014.30
2018-06-02T04:51:16.078Z,1014.29
2018-06-02T04:52:16.127Z,1014.29
2018-06-02T04:53:15.907Z,1014.30
2018-06-02T04:54:15.968Z,1014.31
2018-06-02T04:55:15.843Z,1014.32
2018-06-02T04:56:15.701Z,1014.35
2018-06-02T04:57:15.592Z,1014.37
2018-06-02T04:58:15.656Z,1014.35
2018-06-02T04:59:15.429Z,1014.36
2018-06-02T05:00:15.459Z,1014.37
2018-06-02T05:01:15.326Z,1014.37
2018-06-02T05:02:15.287Z,1014.36
2018-06-02T05:03:15.132Z,1014.40
2018-06-02T05:04:15.136Z,1014.42
2018-06-02T05:05:14.997Z,1014.45
2018-06-02T05:06:14.952Z,1014.44
2018-06-02T05:07:14.817Z,1014.43
2018-06-02T05:08:14.865Z,1014.44
2018-06-02T05:09:14.652Z,1014.47
2018-06-02T05:10:14.745Z,1014.47
2018-06-02T05:11:14.496Z,1014.41
2018-06-02T05:13:56.383Z,1014.46
2018-06-02T05:14:56.378Z,1014.46
2018-06-02T05:15:56.246Z,1014.48
2018-06-02T05:18:38.376Z,1014.54
2018-06-02T05:19:38.378Z,1014.51
2018-06-02T05:20:38.242Z,1014.56
2018-06-02T05:21:38.196Z,1014.56
2018-06-02T05:22:38.066Z,1014.55
2018-06-02T05:23:38.106Z,1014.58
2018-06-02T05:24:37.914Z,1014.55
2018-06-02T05:25:38.961Z,1014.57
2018-06-02T05:26:37.912Z,1014.54
2018-06-02T05:27:37.725Z,1014.56
2018-06-02T05:28:37.598Z,1014.58
2018-06-02T05:29:37.527Z,1014.59
2018-06-02T05:30:37.444Z,1014.58
2018-06-02T05:31:37.470Z,1014.57
2018-06-02T05:32:37.288Z,1014.58
2018-06-02T05:33:37.261Z,1014.62
2018-06-02T05:34:37.144Z,1014.61
2018-06-02T05:35:37.155Z,1014.66
2018-06-02T05:36:36.998Z,1014.61
2018-06-02T05:37:36.970Z,1014.65
2018-06-02T05:38:36.817Z,1014.64
2018-06-02T05:39:36.791Z,1014.68
2018-06-02T05:40:36.806Z,1014.65
2018-06-02T05:41:36.726Z,1014.66
2018-06-02T05:42:36.507Z,1014.63
2018-06-02T05:43:36.491Z,1014.63
2018-06-02T05:44:36.365Z,1014.67
2018-06-02T05:45:36.413Z,1014.67
2018-06-02T05:46:36.224Z,1014.66
2018-06-02T05:47:36.222Z,1014.64
2018-06-02T05:48:36.037Z,1014.63
2018-06-02T05:49:36.024Z,1014.60
2018-06-02T05:50:35.913Z,1014.63
2018-06-02T05:51:36.891Z,1014.58
2018-06-02T05:52:35.780Z,1014.62
2018-06-02T05:53:35.871Z,1014.63
2018-06-02T05:54:35.663Z,1014.62
2018-06-02T05:55:35.545Z,1014.67
2018-06-02T05:56:35.439Z,1014.69
2018-06-02T05:57:35.504Z,1014.70
2018-06-02T05:58:35.329Z,1014.66
2018-06-02T05:59:35.265Z,1014.71
2018-06-02T06:00:35.109Z,1014.70
2018-06-02T06:03:17.486Z,1014.73
2018-06-02T06:05:59.399Z,1014.70
2018-06-02T06:07:00.436Z,1014.69
2018-06-02T06:07:59.260Z,1014.71
2018-06-02T06:08:59.190Z,1014.72
2018-06-02T06:09:59.089Z,1014.68
2018-06-02T06:10:59.001Z,1014.65
2018-06-02T06:11:58.939Z,1014.66
2018-06-02T06:12:58.897Z,1014.70
2018-06-02T06:13:58.770Z,1014.68
2018-06-02T06:16:40.904Z,1014.70
2018-06-02T06:17:40.952Z,1014.73
2018-06-02T06:18:40.749Z,1014.73
2018-06-02T06:19:40.732Z,1014.75
2018-06-02T06:20:40.643Z,1014.73
2018-06-02T06:21:40.552Z,1014.73
2018-06-02T06:22:40.492Z,1014.70
2018-06-02T06:23:40.493Z,1014.69
2018-06-02T06:24:40.283Z,1014.70
2018-06-02T06:25:40.258Z,1014.68
2018-06-02T06:26:40.115Z,1014.68
2018-06-02T06:27:40.274Z,1014.63
2018-06-02T06:28:40.112Z,1014.58
2018-06-02T06:29:40.013Z,1014.61
2018-06-02T06:30:39.818Z,1014.68
2018-06-02T06:33:22.095Z,1014.71
2018-06-02T06:34:21.893Z,1014.72
2018-06-02T06:35:21.909Z,1014.72
2018-06-02T06:38:03.935Z,1014.75
2018-06-02T06:39:03.998Z,1014.75
2018-06-02T06:40:03.785Z,1014.76
2018-06-02T06:44:28.078Z,1014.88
2018-06-02T06:45:27.896Z,1014.81
2018-06-02T06:48:09.972Z,1014.79
2018-06-02T06:49:09.968Z,1014.82
2018-06-02T06:50:09.810Z,1014.81
2018-06-02T06:52:51.907Z,1014.80
2018-06-02T06:53:53.001Z,1014.81
2018-06-02T06:54:51.761Z,1014.79
2018-06-02T06:55:52.336Z,1014.83
2018-06-02T06:56:51.594Z,1014.78
2018-06-02T06:57:52.521Z,1014.75
2018-06-02T06:58:51.481Z,1014.75
2018-06-02T07:01:33.410Z,1014.78
2018-06-02T07:02:33.428Z,1014.72
2018-06-02T07:03:33.275Z,1014.68
2018-06-02T07:04:33.274Z,1014.70
2018-06-02T07:05:33.094Z,1014.73
2018-06-02T07:06:33.064Z,1014.78
2018-06-02T07:07:32.945Z,1014.79
2018-06-02T07:08:33.000Z,1014.82
2018-06-02T07:09:32.784Z,1014.86
2018-06-02T07:10:32.770Z,1014.81
2018-06-02T07:11:32.633Z,1014.80
2018-06-02T07:14:14.934Z,1014.83
2018-06-02T07:15:14.884Z,1014.80
2018-06-02T07:16:14.756Z,1014.78
2018-06-02T07:17:14.791Z,1014.85
2018-06-02T07:18:14.608Z,1014.80
2018-06-02T07:19:14.624Z,1014.80
2018-06-02T07:20:14.485Z,1014.79
2018-06-02T07:21:14.408Z,1014.84
2018-06-02T07:22:14.303Z,1014.83
2018-06-02T07:24:56.515Z,1014.84
2018-06-02T07:25:56.428Z,1014.90
2018-06-02T07:26:56.268Z,1014.90
2018-06-02T07:27:56.227Z,1014.89
2018-06-02T07:28:56.110Z,1014.92
2018-06-02T07:29:57.098Z,1014.94
2018-06-02T07:30:55.952Z,1014.96
2018-06-02T07:31:55.942Z,1014.93
2018-06-02T07:32:55.799Z,1014.93
2018-06-02T07:35:37.952Z,1014.95
2018-06-02T07:36:37.971Z,1015.01
2018-06-02T07:37:37.779Z,1015.01
2018-06-02T07:40:20.046Z,1014.99
2018-06-02T07:41:19.966Z,1014.97
2018-06-02T07:42:19.776Z,1014.94
2018-06-02T07:45:01.935Z,1014.93
2018-06-02T07:46:01.876Z,1014.94
2018-06-02T07:47:01.778Z,1014.91
2018-06-02T07:48:01.791Z,1014.94
2018-06-02T07:49:01.619Z,1014.95
2018-06-02T07:50:01.681Z,1014.89
2018-06-02T07:51:01.520Z,1014.94
2018-06-02T07:53:43.422Z,1014.95
2018-06-02T07:54:43.405Z,1014.93
2018-06-02T07:55:43.298Z,1014.96
2018-06-02T07:58:25.432Z,1014.95
2018-06-02T07:59:25.416Z,1014.94
2018-06-02T08:00:25.306Z,1014.92
2018-06-02T08:03:07.435Z,1014.93
2018-06-02T08:04:07.447Z,1014.95
2018-06-02T08:05:07.294Z,1014.95
2018-06-02T08:07:49.421Z,1014.97
2018-06-02T08:08:49.451Z,1014.91
2018-06-02T08:09:49.273Z,1014.96
2018-06-02T08:10:49.272Z,1014.95
2018-06-02T08:11:49.123Z,1015.00
2018-06-02T08:12:49.149Z,1015.00
2018-06-02T08:13:48.959Z,1015.03
2018-06-02T08:14:48.963Z,1015.08
2018-06-02T08:15:48.822Z,1015.07
2018-06-02T08:18:30.933Z,1015.13
2018-06-02T08:19:30.997Z,1015.12
2018-06-02T08:20:30.848Z,1015.07
2018-06-02T08:21:30.779Z,1015.06
2018-06-02T08:22:30.645Z,1015.04
2018-06-02T08:25:12.962Z,1015.08
2018-06-02T08:26:12.922Z,1015.08
2018-06-02T08:27:12.789Z,1015.05
2018-06-02T08:28:12.816Z,1014.99
2018-06-02T08:29:12.620Z,1015.00
2018-06-02T08:30:20.131Z,1015.01
2018-06-02T08:31:12.496Z,1015.00
2018-06-02T08:33:54.447Z,1015.02
2018-06-02T08:34:54.414Z,1015.02
2018-06-02T08:35:54.309Z,1015.04
2018-06-02T08:36:54.372Z,1015.01
2018-06-02T08:37:54.133Z,1015.02
2018-06-02T08:38:54.177Z,1015.11
2018-06-02T08:39:53.986Z,1015.04
2018-06-02T08:40:53.938Z,1015.03
2018-06-02T08:41:53.872Z,1015.07
2018-06-02T08:42:53.850Z,1015.07
2018-06-02T08:43:53.683Z,1015.07
2018-06-02T08:44:53.657Z,1015.06
2018-06-02T08:45:53.530Z,1015.11
2018-06-02T08:46:53.523Z,1015.11
2018-06-02T08:47:53.384Z,1015.11
2018-06-02T08:48:53.379Z,1015.08
2018-06-02T08:49:53.204Z,1015.08
2018-06-02T08:50:53.197Z,1015.03
2018-06-02T08:51:56.097Z,1015.09
2018-06-02T08:52:53.098Z,1015.02
2018-06-02T08:53:52.900Z,1015.07
2018-06-02T08:54:52.905Z,1015.08
2018-06-02T08:55:52.751Z,1015.06
2018-06-02T08:58:34.955Z,1015.16
2018-06-02T08:59:34.920Z,1015.14
2018-06-02T09:00:34.785Z,1015.13
2018-06-02T09:01:34.828Z,1015.12
2018-06-02T09:02:34.748Z,1015.06
2018-06-02T09:03:34.579Z,1015.12
2018-06-02T09:04:34.485Z,1015.09
2018-06-02T09:05:34.448Z,1015.09
2018-06-02T09:06:34.404Z,1015.08
2018-06-02T09:07:34.367Z,1015.13
2018-06-02T09:08:34.171Z,1015.14
2018-06-02T09:09:34.168Z,1015.18
2018-06-02T09:10:34.020Z,1015.17
2018-06-02T09:11:33.966Z,1015.15
2018-06-02T09:12:33.883Z,1015.20
2018-06-02T09:13:33.796Z,1015.22
2018-06-02T09:14:33.715Z,1015.24
2018-06-02T09:15:33.705Z,1015.26
2018-06-02T09:16:33.560Z,1015.24
2018-06-02T09:17:34.507Z,1015.26
2018-06-02T09:18:33.408Z,1015.30
2018-06-02T09:19:33.354Z,1015.30
2018-06-02T09:20:33.268Z,1015.35
2018-06-02T09:21:33.188Z,1015.31
2018-06-02T09:22:33.131Z,1015.30
2018-06-02T09:23:33.033Z,1015.35
2018-06-02T09:24:32.944Z,1015.31
2018-06-02T09:25:33.019Z,1015.31
2018-06-02T09:26:32.792Z,1015.33
2018-06-02T09:27:32.749Z,1015.36
2018-06-02T09:28:32.667Z,1015.41
2018-06-02T09:29:32.567Z,1015.41
2018-06-02T09:30:32.478Z,1015.39
2018-06-02T09:31:32.427Z,1015.45
2018-06-02T09:32:32.341Z,1015.37
2018-06-02T09:33:32.324Z,1015.41
2018-06-02T09:34:32.192Z,1015.41
2018-06-02T09:35:32.111Z,1015.40
2018-06-02T09:36:32.038Z,1015.48
2018-06-02T09:37:32.992Z,1015.48
2018-06-02T09:38:31.873Z,1015.47
2018-06-02T09:39:31.833Z,1015.45
2018-06-02T09:40:31.721Z,1015.42
2018-06-02T09:43:13.988Z,1015.46
2018-06-02T09:44:13.963Z,1015.48
2018-06-02T09:45:13.817Z,1015.50
2018-06-02T09:46:13.736Z,1015.46
2018-06-02T09:47:13.654Z,1015.51
2018-06-02T09:48:13.607Z,1015.52
2018-06-02T09:49:13.500Z,1015.46
2018-06-02T09:50:15.443Z,1015.67
2018-06-02T09:51:13.359Z,1015.54
2018-06-02T09:53:55.546Z,1015.48
2018-06-02T09:54:55.454Z,1015.51
2018-06-02T09:55:55.316Z,1015.47
2018-06-02T09:56:55.371Z,1015.59
2018-06-02T09:57:55.179Z,1015.47
2018-06-02T09:58:55.239Z,1015.40
2018-06-02T09:59:55.038Z,1015.39
2018-06-02T10:00:54.984Z,1015.32
2018-06-02T10:01:54.924Z,1015.35
2018-06-02T10:02:54.902Z,1015.35
2018-06-02T10:03:54.746Z,1015.34
2018-06-02T10:04:54.701Z,1015.34
2018-06-02T10:05:54.567Z,1015.38
2018-06-02T10:08:36.489Z,1015.41
2018-06-02T10:09:36.511Z,1015.41
2018-06-02T10:10:36.386Z,1015.41
2018-06-02T10:11:36.316Z,1015.36
2018-06-02T10:12:36.181Z,1015.33
2018-06-02T10:13:36.150Z,1015.35
2018-06-02T10:14:36.038Z,1015.28
2018-06-02T10:15:36.059Z,1015.29
2018-06-02T10:16:35.883Z,1015.30
2018-06-02T10:17:35.847Z,1015.34
2018-06-02T10:18:35.746Z,1015.33
2018-06-02T10:19:35.759Z,1015.37
2018-06-02T10:20:35.580Z,1015.37
2018-06-02T10:21:35.613Z,1015.33
2018-06-02T10:22:35.431Z,1015.30
2018-06-02T10:23:35.404Z,1015.29
2018-06-02T10:24:35.287Z,1015.29
2018-06-02T10:25:35.210Z,1015.29
2018-06-02T10:26:35.136Z,1015.22
2018-06-02T10:29:17.003Z,1015.25
2018-06-02T10:30:16.992Z,1015.25
2018-06-02T10:31:16.830Z,1015.28
2018-06-02T10:32:16.793Z,1015.29
2018-06-02T10:33:16.674Z,1015.31
2018-06-02T10:34:17.744Z,1015.30
2018-06-02T10:35:16.529Z,1015.24
2018-06-02T10:37:58.481Z,1015.33
2018-06-02T10:38:58.512Z,1015.32
2018-06-02T10:39:58.340Z,1015.33
2018-06-02T10:40:58.404Z,1015.36
2018-06-02T10:41:58.187Z,1015.31
2018-06-02T10:42:58.244Z,1015.27
2018-06-02T10:43:58.036Z,1015.29
2018-06-02T10:45:01.261Z,1015.29
2018-06-02T10:45:57.884Z,1015.34
2018-06-02T10:46:57.835Z,1015.31
2018-06-02T10:47:57.729Z,1015.32
2018-06-02T10:48:57.766Z,1015.28
2018-06-02T10:49:57.617Z,1015.33
2018-06-02T10:50:57.582Z,1015.37
2018-06-02T10:51:57.449Z,1015.40
2018-06-02T10:52:57.368Z,1015.37
2018-06-02T10:53:57.288Z,1015.39
2018-06-02T10:54:57.235Z,1015.39
2018-06-02T10:55:57.141Z,1015.41
2018-06-02T10:56:57.078Z,1015.35
2018-06-02T10:57:56.995Z,1015.35
2018-06-02T10:58:56.925Z,1015.35
2018-06-02T10:59:56.892Z,1015.31
2018-06-02T11:00:56.762Z,1015.30
2018-06-02T11:01:56.694Z,1015.25
2018-06-02T11:02:56.628Z,1015.26
2018-06-02T11:03:56.540Z,1015.27
2018-06-02T11:04:56.581Z,1015.23
2018-06-02T11:05:56.403Z,1015.29
2018-06-02T11:08:38.483Z,1015.31
2018-06-02T11:09:38.440Z,1015.32
2018-06-02T11:10:38.371Z,1015.26
2018-06-02T11:11:38.364Z,1015.29
2018-06-02T11:12:38.205Z,1015.28
2018-06-02T11:15:20.505Z,1015.30
2018-06-02T11:16:20.419Z,1015.28
2018-06-02T11:17:20.352Z,1015.27
2018-06-02T11:20:02.504Z,1015.30
2018-06-02T11:21:02.484Z,1015.30
2018-06-02T11:22:02.371Z,1015.24
2018-06-02T11:24:44.499Z,1015.24
2018-06-02T11:25:44.446Z,1015.22
2018-06-02T11:26:44.364Z,1015.21
2018-06-02T11:29:26.507Z,1015.22
2018-06-02T11:30:26.548Z,1015.28
2018-06-02T11:31:26.349Z,1015.28
2018-06-02T11:34:08.505Z,1015.30
2018-06-02T11:35:08.511Z,1015.34
2018-06-02T11:36:08.375Z,1015.32
2018-06-02T11:37:08.283Z,1015.33
2018-06-02T11:38:08.203Z,1015.35
2018-06-02T11:39:08.235Z,1015.42
2018-06-02T11:40:08.058Z,1015.33
2018-06-02T11:41:08.082Z,1015.35
2018-06-02T11:42:07.911Z,1015.37
2018-06-02T11:43:07.948Z,1015.38
2018-06-02T11:44:07.755Z,1015.38
2018-06-02T11:45:07.681Z,1015.36
2018-06-02T11:46:07.618Z,1015.36
2018-06-02T11:47:07.530Z,1015.39
2018-06-02T11:48:07.473Z,1015.36
2018-06-02T11:49:07.396Z,1015.38
2018-06-02T11:50:07.314Z,1015.32
2018-06-02T11:51:07.260Z,1015.29
2018-06-02T11:52:07.161Z,1015.28
2018-06-02T11:53:07.094Z,1015.31
2018-06-02T11:54:07.013Z,1015.31
2018-06-02T11:56:49.028Z,1015.37
2018-06-02T11:59:31.008Z,1015.31
2018-06-02T12:00:30.955Z,1015.24
2018-06-02T12:01:30.893Z,1015.28
2018-06-02T12:04:13.017Z,1015.21
2018-06-02T12:05:12.940Z,1015.16
2018-06-02T12:06:12.974Z,1015.13
2018-06-02T12:07:12.813Z,1015.13
2018-06-02T12:08:12.730Z,1015.07
2018-06-02T12:09:12.656Z,1015.06
2018-06-02T12:10:12.575Z,1015.02
2018-06-02T12:11:12.519Z,1015.03
2018-06-02T12:12:12.645Z,1015.08
2018-06-02T12:13:14.137Z,1015.06
2018-06-02T12:14:12.301Z,1015.01
2018-06-02T12:15:12.521Z,1015.03
2018-06-02T12:16:14.043Z,1015.04
2018-06-02T12:17:13.086Z,1015.03
2018-06-02T12:18:12.006Z,1014.98
2018-06-02T12:19:11.920Z,1014.98
2018-06-02T12:20:11.841Z,1015.00
2018-06-02T12:21:11.784Z,1015.00
2018-06-02T12:22:11.727Z,1015.01
2018-06-02T12:24:53.517Z,1015.00
2018-06-02T12:25:53.452Z,1014.93
2018-06-02T12:26:53.395Z,1014.92
2018-06-02T12:27:53.309Z,1014.97
2018-06-02T12:28:53.225Z,1014.91
2018-06-02T12:29:53.219Z,1014.90
2018-06-02T12:30:53.074Z,1014.89
2018-06-02T12:31:58.263Z,1014.85
2018-06-02T12:32:52.936Z,1014.88
2018-06-02T12:33:52.922Z,1014.86
2018-06-02T12:34:52.782Z,1014.88
2018-06-02T12:35:52.833Z,1014.76
2018-06-02T12:36:52.680Z,1014.84
2018-06-02T12:37:53.709Z,1014.88
2018-06-02T12:38:52.487Z,1014.84
2018-06-02T12:39:52.456Z,1014.88
2018-06-02T12:40:52.377Z,1014.82
2018-06-02T12:41:52.364Z,1014.91
2018-06-02T12:42:52.207Z,1014.86
2018-06-02T12:43:52.168Z,1014.87
2018-06-02T12:44:52.040Z,1014.87
2018-06-02T12:45:52.080Z,1014.93
2018-06-02T12:46:51.929Z,1014.92
2018-06-02T12:47:51.853Z,1014.90
2018-06-02T12:48:51.752Z,1014.89
2018-06-02T12:49:51.721Z,1014.91
2018-06-02T12:50:51.605Z,1014.89
2018-06-02T12:51:51.550Z,1014.89
2018-06-02T12:52:51.474Z,1014.89
2018-06-02T12:53:51.434Z,1014.92
2018-06-02T12:54:51.304Z,1014.93
2018-06-02T12:55:51.332Z,1014.94
2018-06-02T12:56:51.148Z,1014.96
2018-06-02T12:57:51.185Z,1014.92
2018-06-02T12:58:51.004Z,1014.96
2018-06-02T12:59:51.049Z,1014.94
2018-06-02T13:00:50.864Z,1014.94
2018-06-02T13:01:50.873Z,1014.98
2018-06-02T13:02:50.727Z,1015.00
2018-06-02T13:03:53.799Z,1014.98
2018-06-02T13:04:50.563Z,1015.02
2018-06-02T13:05:50.582Z,1015.01
2018-06-02T13:06:50.412Z,1015.01
2018-06-02T13:07:50.397Z,1015.01
2018-06-02T13:08:50.296Z,1015.04
2018-06-02T13:09:50.317Z,1015.07
2018-06-02T13:10:50.140Z,1015.11
2018-06-02T13:11:50.106Z,1015.11
2018-06-02T13:12:49.987Z,1015.12
2018-06-02T13:13:49.948Z,1015.09
2018-06-02T13:14:49.843Z,1015.11
2018-06-02T13:15:49.837Z,1015.07
2018-06-02T13:16:49.688Z,1015.07
2018-06-02T13:19:31.567Z,1015.03
2018-06-02T13:22:13.536Z,1015.01
2018-06-02T13:23:13.530Z,1015.01
2018-06-02T13:24:13.431Z,1014.99
2018-06-02T13:25:13.442Z,1014.98
2018-06-02T13:26:13.251Z,1014.95
2018-06-02T13:27:13.260Z,1014.97
2018-06-02T13:28:13.107Z,1014.92
2018-06-02T13:29:13.057Z,1014.98
2018-06-02T13:30:12.957Z,1014.99
2018-06-02T13:31:12.968Z,1014.90
2018-06-02T13:32:12.810Z,1014.98
2018-06-02T13:33:12.757Z,1014.99
2018-06-02T13:34:12.684Z,1015.01
2018-06-02T13:35:12.685Z,1015.00
2018-06-02T13:36:12.514Z,1015.00
2018-06-02T13:37:12.500Z,1014.98
2018-06-02T13:38:12.375Z,1014.95
2018-06-02T13:39:15.825Z,1014.96
2018-06-02T13:40:12.233Z,1014.94
2018-06-02T13:41:12.223Z,1014.92
2018-06-02T13:42:12.080Z,1014.93
2018-06-02T13:44:57.186Z,1014.93
2018-06-02T13:45:54.013Z,1014.95
2018-06-02T13:46:53.905Z,1014.96
2018-06-02T13:47:53.946Z,1014.90
2018-06-02T13:48:53.780Z,1014.89
2018-06-02T13:49:53.820Z,1014.89
2018-06-02T13:50:53.600Z,1014.86
2018-06-02T13:51:53.650Z,1014.85
2018-06-02T13:52:53.471Z,1014.83
2018-06-02T13:55:35.627Z,1014.82
2018-06-02T13:58:17.981Z,1014.83
2018-06-02T13:59:17.553Z,1014.81
2018-06-02T14:00:17.443Z,1014.83
2018-06-02T14:01:17.371Z,1014.79
2018-06-02T14:02:17.293Z,1014.79